createdAt,value
2018-08-03T00:01:18.969Z,22.59
2018-08-03T00:03:29.734Z,22.60
2018-08-03T00:04:29.741Z,22.59
2018-08-03T00:05:29.741Z,22.61
2018-08-03T00:08:02.942Z,22.66
2018-08-03T00:09:07.501Z,22.61
2018-08-03T00:10:22.501Z,22.63
2018-08-03T00:12:33.263Z,22.63
2018-08-03T00:13:53.607Z,22.60
2018-08-03T00:14:33.277Z,22.66
2018-08-03T00:15:39.771Z,22.56
2018-08-03T00:16:32.999Z,22.54
2018-08-03T00:17:54.084Z,22.45
2018-08-03T00:18:35.771Z,22.46
2018-08-03T00:19:33.771Z,22.38
2018-08-03T00:20:34.271Z,22.45
2018-08-03T00:21:55.271Z,22.39
2018-08-03T00:22:34.274Z,22.42
2018-08-03T00:23:34.274Z,22.45
2018-08-03T00:24:33.872Z,22.35
2018-08-03T00:25:36.771Z,22.31
2018-08-03T00:26:34.772Z,22.39
2018-08-03T00:27:34.772Z,22.31
2018-08-03T00:30:05.812Z,22.31
2018-08-03T00:31:05.920Z,22.39
2018-08-03T00:32:29.002Z,22.36
2018-08-03T00:33:07.030Z,22.30
2018-08-03T00:34:07.030Z,22.19
2018-08-03T00:35:09.977Z,22.19
2018-08-03T00:36:07.030Z,22.19
2018-08-03T00:37:07.546Z,22.14
2018-08-03T00:38:08.492Z,22.12
2018-08-03T00:39:07.531Z,22.14
2018-08-03T00:40:08.465Z,22.08
2018-08-03T00:41:07.122Z,22.19
2018-08-03T00:42:30.029Z,22.15
2018-08-03T00:43:08.964Z,22.14
2018-08-03T00:44:08.031Z,22.11
2018-08-03T00:45:08.531Z,22.11
2018-08-03T00:46:08.531Z,22.14
2018-08-03T00:47:08.531Z,22.05
2018-08-03T00:48:08.531Z,22.14
2018-08-03T00:49:08.539Z,22.06
2018-08-03T00:50:09.031Z,22.12
2018-08-03T00:51:09.031Z,22.04
2018-08-03T00:52:09.039Z,22.04
2018-08-03T00:53:09.027Z,22.06
2018-08-03T00:57:26.220Z,22.08
2018-08-03T00:58:12.233Z,22.06
2018-08-03T00:59:12.233Z,21.99
2018-08-03T01:00:12.734Z,22.04
2018-08-03T01:01:33.737Z,22.09
2018-08-03T01:02:33.728Z,22.09
2018-08-03T01:03:12.735Z,22.09
2018-08-03T01:04:13.234Z,22.04
2018-08-03T01:05:13.233Z,22.01
2018-08-03T01:06:27.233Z,21.93
2018-08-03T01:07:19.736Z,22.02
2018-08-03T01:08:40.729Z,21.96
2018-08-03T01:09:13.733Z,22.04
2018-08-03T01:10:13.733Z,22.01
2018-08-03T01:11:13.733Z,22.02
2018-08-03T01:13:48.953Z,22.08
2018-08-03T01:14:45.520Z,22.06
2018-08-03T01:15:45.519Z,22.04
2018-08-03T01:17:07.019Z,21.83
2018-08-03T01:17:45.273Z,21.85
2018-08-03T01:19:06.993Z,21.82
2018-08-03T01:19:46.027Z,21.75
2018-08-03T01:21:07.520Z,21.77
2018-08-03T01:21:49.451Z,21.66
2018-08-03T01:23:07.519Z,21.71
2018-08-03T01:23:46.519Z,21.71
2018-08-03T01:24:49.020Z,21.77
2018-08-03T01:26:08.019Z,21.82
2018-08-03T01:26:49.082Z,21.73
2018-08-03T01:27:47.022Z,21.75
2018-08-03T01:28:46.554Z,21.79
2018-08-03T01:30:14.519Z,21.70
2018-08-03T01:32:18.899Z,21.58
2018-08-03T01:33:18.906Z,21.63
2018-08-03T01:34:18.908Z,21.64
2018-08-03T01:35:39.491Z,21.55
2018-08-03T01:36:19.406Z,21.61
2018-08-03T01:39:11.047Z,21.70
2018-08-03T01:39:50.791Z,21.68
2018-08-03T01:42:22.419Z,21.66
2018-08-03T01:43:42.753Z,21.67
2018-08-03T01:44:22.426Z,21.67
2018-08-03T01:45:22.469Z,21.58
2018-08-03T01:47:54.179Z,21.55
2018-08-03T01:48:54.186Z,21.61
2018-08-03T01:49:54.192Z,21.59
2018-08-03T01:54:03.408Z,21.61
2018-08-03T01:54:57.415Z,21.58
2018-08-03T01:55:57.413Z,21.48
2018-08-03T01:57:18.911Z,21.51
2018-08-03T01:58:18.911Z,21.42
2018-08-03T01:58:59.960Z,21.48
2018-08-03T01:59:57.911Z,21.45
2018-08-03T02:02:29.688Z,21.48
2018-08-03T02:03:29.692Z,21.46
2018-08-03T02:04:29.690Z,21.38
2018-08-03T02:05:30.192Z,21.34
2018-08-03T02:06:30.196Z,21.36
2018-08-03T02:07:30.194Z,21.45
2018-08-03T02:08:30.199Z,21.43
2018-08-03T02:09:51.692Z,21.38
2018-08-03T02:12:16.571Z,21.28
2018-08-03T02:13:02.578Z,21.37
2018-08-03T02:14:02.578Z,21.31
2018-08-03T02:15:02.579Z,21.33
2018-08-03T02:16:03.017Z,21.28
2018-08-03T02:17:03.077Z,21.34
2018-08-03T02:18:03.077Z,21.28
2018-08-03T02:19:02.555Z,21.33
2018-08-03T02:20:03.577Z,21.30
2018-08-03T02:25:40.316Z,21.26
2018-08-03T02:26:39.797Z,21.18
2018-08-03T02:27:40.321Z,21.16
2018-08-03T02:28:37.925Z,21.18
2018-08-03T02:29:38.823Z,21.24
2018-08-03T02:30:39.763Z,21.19
2018-08-03T02:31:59.822Z,21.22
2018-08-03T02:32:39.321Z,21.18
2018-08-03T02:33:46.282Z,21.19
2018-08-03T02:34:59.493Z,21.24
2018-08-03T02:35:59.580Z,21.16
2018-08-03T02:36:39.324Z,21.06
2018-08-03T02:37:39.325Z,21.22
2018-08-03T02:38:39.826Z,21.11
2018-08-03T02:39:39.815Z,21.24
2018-08-03T02:40:39.830Z,21.21
2018-08-03T02:41:39.316Z,21.22
2018-08-03T02:42:40.322Z,21.34
2018-08-03T02:43:40.323Z,21.24
2018-08-03T02:44:40.322Z,21.27
2018-08-03T02:45:39.799Z,21.16
2018-08-03T02:46:40.823Z,21.24
2018-08-03T02:47:40.826Z,21.27
2018-08-03T02:48:40.830Z,21.19
2018-08-03T02:49:40.309Z,21.26
2018-08-03T02:50:40.434Z,21.15
2018-08-03T02:51:55.326Z,21.19
2018-08-03T02:52:41.331Z,21.09
2018-08-03T02:53:41.322Z,21.16
2018-08-03T02:54:55.823Z,21.08
2018-08-03T02:55:41.822Z,21.01
2018-08-03T02:57:02.801Z,21.06
2018-08-03T02:58:02.822Z,21.08
2018-08-03T02:58:41.425Z,21.08
2018-08-03T02:59:42.319Z,21.00
2018-08-03T03:00:56.326Z,21.11
2018-08-03T03:02:42.823Z,21.01
2018-08-03T03:03:42.822Z,21.11
2018-08-03T03:04:42.177Z,21.03
2018-08-03T03:06:05.255Z,20.97
2018-08-03T03:07:04.323Z,20.97
2018-08-03T03:07:45.329Z,20.96
2018-08-03T03:08:42.698Z,21.01
2018-08-03T03:09:44.277Z,20.96
2018-08-03T03:10:43.826Z,20.97
2018-08-03T03:12:04.823Z,20.96
2018-08-03T03:12:43.838Z,20.96
2018-08-03T03:13:43.823Z,20.94
2018-08-03T03:14:43.435Z,20.93
2018-08-03T03:15:44.322Z,20.88
2018-08-03T03:16:44.322Z,20.88
2018-08-03T03:17:44.323Z,20.87
2018-08-03T03:18:46.822Z,20.83
2018-08-03T03:19:44.889Z,20.83
2018-08-03T03:20:44.825Z,20.85
2018-08-03T03:21:44.824Z,20.82
2018-08-03T03:22:45.339Z,20.96
2018-08-03T03:23:45.324Z,20.87
2018-08-03T03:24:44.674Z,20.94
2018-08-03T03:25:45.323Z,20.87
2018-08-03T03:27:05.920Z,20.81
2018-08-03T03:29:16.502Z,20.94
2018-08-03T03:30:17.189Z,20.88
2018-08-03T03:31:17.190Z,20.87
2018-08-03T03:32:40.708Z,20.88
2018-08-03T03:33:38.693Z,20.79
2018-08-03T03:34:17.690Z,20.88
2018-08-03T03:35:17.690Z,20.71
2018-08-03T03:36:24.190Z,20.69
2018-08-03T03:37:24.190Z,20.73
2018-08-03T03:38:18.194Z,20.78
2018-08-03T03:39:18.190Z,20.72
2018-08-03T03:40:24.691Z,20.71
2018-08-03T03:41:39.690Z,20.83
2018-08-03T03:45:27.650Z,20.79
2018-08-03T03:46:21.033Z,20.83
2018-08-03T03:47:42.683Z,20.81
2018-08-03T03:48:43.185Z,20.79
2018-08-03T03:49:24.117Z,20.90
2018-08-03T03:50:23.119Z,20.78
2018-08-03T03:51:23.617Z,20.88
2018-08-03T03:52:22.684Z,20.76
2018-08-03T03:53:42.911Z,20.79
2018-08-03T03:54:43.685Z,20.87
2018-08-03T03:55:22.161Z,20.88
2018-08-03T03:56:29.195Z,20.78
2018-08-03T03:57:22.422Z,20.79
2018-08-03T03:58:25.188Z,20.79
2018-08-03T03:59:23.209Z,20.71
2018-08-03T04:00:22.787Z,20.73
2018-08-03T04:03:20.487Z,20.68
2018-08-03T04:04:16.055Z,20.71
2018-08-03T04:04:54.565Z,20.58
2018-08-03T04:05:55.555Z,20.63
2018-08-03T04:06:55.556Z,20.61
2018-08-03T04:07:54.910Z,20.68
2018-08-03T04:08:55.555Z,20.57
2018-08-03T04:09:55.162Z,20.73
2018-08-03T04:10:56.112Z,20.68
2018-08-03T04:11:55.402Z,20.57
2018-08-03T04:12:56.055Z,20.54
2018-08-03T04:15:27.807Z,20.73
2018-08-03T04:16:29.813Z,20.57
2018-08-03T04:17:27.301Z,20.76
2018-08-03T04:18:30.316Z,20.69
2018-08-03T04:19:55.313Z,20.73
2018-08-03T04:20:28.402Z,20.78
2018-08-03T04:21:27.839Z,20.68
2018-08-03T04:22:28.816Z,20.68
2018-08-03T04:23:28.816Z,20.71
2018-08-03T04:24:28.808Z,20.73
2018-08-03T04:25:28.834Z,20.85
2018-08-03T04:26:29.317Z,20.72
2018-08-03T04:27:49.545Z,20.69
2018-08-03T04:28:29.320Z,20.72
2018-08-03T04:29:50.320Z,20.78
2018-08-03T04:30:29.813Z,20.78
2018-08-03T04:31:50.030Z,20.69
2018-08-03T04:32:29.813Z,20.85
2018-08-03T04:33:29.813Z,20.79
2018-08-03T04:34:57.331Z,20.76
2018-08-03T04:35:30.314Z,20.79
2018-08-03T04:36:30.317Z,20.87
2018-08-03T04:37:30.317Z,20.85
2018-08-03T04:38:29.942Z,20.83
2018-08-03T04:39:53.245Z,20.94
2018-08-03T04:40:31.812Z,20.83
2018-08-03T04:41:30.828Z,20.66
2018-08-03T04:42:30.425Z,20.42
2018-08-03T04:43:52.314Z,20.25
2018-08-03T04:44:54.328Z,20.17
2018-08-03T04:45:31.351Z,20.05
2018-08-03T04:46:31.814Z,20.23
2018-08-03T04:47:31.041Z,20.38
2018-08-03T04:48:31.866Z,20.56
2018-08-03T04:49:46.314Z,20.60
2018-08-03T04:50:55.320Z,20.56
2018-08-03T04:53:03.699Z,20.79
2018-08-03T04:54:03.706Z,20.78
2018-08-03T04:55:03.209Z,20.90
2018-08-03T04:56:06.210Z,20.82
2018-08-03T04:57:04.206Z,20.91
2018-08-03T04:58:04.208Z,20.91
2018-08-03T04:59:25.208Z,20.90
2018-08-03T05:00:03.824Z,20.94
2018-08-03T05:01:04.713Z,20.97
2018-08-03T05:02:18.713Z,20.96
2018-08-03T05:03:25.706Z,20.97
2018-08-03T05:05:36.466Z,20.98
2018-08-03T05:06:36.474Z,20.97
2018-08-03T05:07:36.474Z,21.01
2018-08-03T05:08:36.981Z,21.08
2018-08-03T05:09:57.205Z,21.00
2018-08-03T05:10:36.973Z,21.05
2018-08-03T05:11:57.973Z,21.09
2018-08-03T05:14:08.738Z,21.12
2018-08-03T05:15:08.744Z,21.11
2018-08-03T05:16:08.749Z,21.12
2018-08-03T05:17:09.245Z,21.15
2018-08-03T05:18:08.471Z,21.13
2018-08-03T05:19:08.575Z,21.16
2018-08-03T05:20:09.250Z,21.24
2018-08-03T05:21:30.772Z,21.21
2018-08-03T05:22:30.745Z,21.21
2018-08-03T05:23:09.750Z,21.37
2018-08-03T05:24:09.765Z,21.33
2018-08-03T05:25:31.247Z,21.40
2018-08-03T05:26:09.474Z,21.42
2018-08-03T05:27:12.245Z,21.42
2018-08-03T05:28:10.244Z,21.52
2018-08-03T05:29:31.744Z,21.48
2018-08-03T05:30:39.177Z,21.53
2018-08-03T05:31:12.203Z,21.51
2018-08-03T05:32:10.745Z,21.55
2018-08-03T05:34:56.512Z,21.56
2018-08-03T05:35:42.514Z,21.56
2018-08-03T05:36:42.513Z,21.53
2018-08-03T05:38:04.022Z,21.40
2018-08-03T05:38:43.017Z,21.42
2018-08-03T05:39:43.013Z,21.58
2018-08-03T05:40:43.011Z,21.74
2018-08-03T05:41:57.509Z,21.82
2018-08-03T05:42:44.967Z,21.89
2018-08-03T05:43:42.827Z,21.85
2018-08-03T05:44:43.511Z,21.96
2018-08-03T05:45:42.986Z,22.01
2018-08-03T05:46:44.944Z,22.02
2018-08-03T05:47:43.240Z,22.14
2018-08-03T05:48:43.332Z,22.19
2018-08-03T05:49:44.012Z,22.30
2018-08-03T05:50:44.009Z,22.51
2018-08-03T05:53:17.781Z,22.57
2018-08-03T05:58:52.144Z,22.88
2018-08-03T05:59:49.501Z,23.01
2018-08-03T06:00:50.156Z,23.22
2018-08-03T06:01:50.655Z,23.29
2018-08-03T06:04:24.475Z,23.59
2018-08-03T06:05:21.385Z,23.52
2018-08-03T06:06:22.973Z,23.52
2018-08-03T06:07:22.541Z,23.57
2018-08-03T06:08:21.769Z,23.67
2018-08-03T06:09:22.541Z,23.67
2018-08-03T06:10:22.025Z,24.11
2018-08-03T06:11:29.044Z,24.46
2018-08-03T06:15:26.361Z,25.54
2018-08-03T06:16:26.368Z,25.85
2018-08-03T06:17:26.415Z,26.16
2018-08-03T06:18:46.955Z,26.21
2018-08-03T06:19:26.059Z,26.49
2018-08-03T06:20:26.870Z,26.53
2018-08-03T06:21:26.869Z,26.64
2018-08-03T06:22:27.375Z,27.03
2018-08-03T06:23:27.441Z,27.27
2018-08-03T06:24:27.370Z,27.27
2018-08-03T06:25:48.368Z,27.27
2018-08-03T06:26:27.369Z,27.49
2018-08-03T06:27:27.371Z,27.06
2018-08-03T06:28:27.009Z,27.09
2018-08-03T06:29:48.940Z,27.11
2018-08-03T06:30:27.878Z,27.16
2018-08-03T06:31:27.869Z,27.12
2018-08-03T06:32:27.479Z,27.43
2018-08-03T06:35:05.773Z,27.61
2018-08-03T06:35:59.771Z,27.46
2018-08-03T06:36:59.772Z,27.16
2018-08-03T06:37:59.372Z,26.87
2018-08-03T06:39:06.270Z,27.05
2018-08-03T06:39:59.625Z,27.13
2018-08-03T06:40:59.730Z,26.65
2018-08-03T06:42:06.768Z,26.41
2018-08-03T06:43:14.770Z,26.24
2018-08-03T06:44:00.149Z,26.19
2018-08-03T06:45:00.769Z,26.08
2018-08-03T06:46:01.270Z,26.46
2018-08-03T06:47:21.483Z,26.42
2018-08-03T06:49:01.271Z,26.36
2018-08-03T06:51:32.235Z,26.08
2018-08-03T06:52:32.939Z,25.90
2018-08-03T06:53:32.939Z,25.79
2018-08-03T06:54:33.441Z,25.83
2018-08-03T06:55:54.438Z,25.85
2018-08-03T06:56:33.439Z,25.71
2018-08-03T06:57:33.533Z,25.67
2018-08-03T06:58:39.949Z,25.89
2018-08-03T06:59:39.371Z,26.00
2018-08-03T07:00:33.329Z,26.00
2018-08-03T07:01:33.416Z,26.06
2018-08-03T07:02:48.452Z,26.27
2018-08-03T07:03:34.444Z,26.13
2018-08-03T07:04:48.440Z,26.24
2018-08-03T07:05:48.439Z,26.34
2018-08-03T07:08:06.213Z,26.54
2018-08-03T07:09:20.220Z,26.65
2018-08-03T07:10:05.698Z,26.79
2018-08-03T07:11:06.651Z,26.98
2018-08-03T07:13:53.036Z,26.98
2018-08-03T07:14:38.135Z,27.06
2018-08-03T07:15:38.099Z,27.08
2018-08-03T07:18:09.869Z,27.38
2018-08-03T07:19:09.874Z,27.34
2018-08-03T07:20:11.373Z,27.48
2018-08-03T07:22:40.873Z,27.83
2018-08-03T07:23:41.590Z,27.68
2018-08-03T07:24:41.592Z,27.72
2018-08-03T07:25:42.094Z,27.71
2018-08-03T07:26:43.086Z,27.63
2018-08-03T07:28:03.088Z,27.77
2018-08-03T07:28:42.089Z,27.96
2018-08-03T07:29:42.606Z,28.13
2018-08-03T07:30:44.523Z,28.25
2018-08-03T07:34:45.548Z,28.27
2018-08-03T07:35:45.554Z,28.20
2018-08-03T07:36:45.552Z,28.25
2018-08-03T07:38:07.049Z,28.27
2018-08-03T07:38:48.482Z,28.35
2018-08-03T07:39:46.056Z,28.33
2018-08-03T07:41:00.548Z,28.39
2018-08-03T07:41:48.012Z,28.52
2018-08-03T07:42:46.569Z,28.74
2018-08-03T07:43:46.547Z,28.83
2018-08-03T07:45:08.525Z,29.07
2018-08-03T07:45:50.981Z,29.32
2018-08-03T07:47:14.060Z,29.37
2018-08-03T07:47:47.050Z,29.42
2018-08-03T07:48:46.531Z,29.44
2018-08-03T07:50:07.629Z,29.44
2018-08-03T07:52:18.895Z,29.23
2018-08-03T07:53:32.897Z,29.23
2018-08-03T07:54:18.906Z,29.20
2018-08-03T07:55:20.846Z,29.20
2018-08-03T07:56:19.397Z,29.12
2018-08-03T07:57:19.396Z,29.15
2018-08-03T07:58:40.397Z,29.07
2018-08-03T08:01:11.433Z,29.18
2018-08-03T08:01:53.172Z,29.21
2018-08-03T08:02:51.173Z,29.32
2018-08-03T08:03:53.672Z,29.41
2018-08-03T08:04:53.672Z,29.32
2018-08-03T08:05:51.029Z,29.32
2018-08-03T08:07:05.672Z,29.42
2018-08-03T08:08:12.265Z,29.45
2018-08-03T08:09:15.170Z,29.47
2018-08-03T08:09:52.173Z,29.48
2018-08-03T08:10:59.649Z,29.73
2018-08-03T08:13:23.189Z,29.85
2018-08-03T08:14:23.919Z,29.88
2018-08-03T08:15:23.406Z,30.03
2018-08-03T08:16:30.440Z,30.03
2018-08-03T08:17:30.414Z,30.10
2018-08-03T08:18:23.771Z,29.94
2018-08-03T08:19:24.424Z,29.95
2018-08-03T08:20:45.030Z,29.91
2018-08-03T08:21:45.916Z,30.07
2018-08-03T08:22:24.915Z,29.97
2018-08-03T08:23:24.915Z,29.91
2018-08-03T08:24:45.506Z,30.06
2018-08-03T08:25:25.423Z,30.07
2018-08-03T08:26:24.797Z,30.11
2018-08-03T08:27:25.418Z,30.15
2018-08-03T08:28:39.915Z,30.28
2018-08-03T08:29:46.136Z,30.19
2018-08-03T08:30:25.915Z,30.13
2018-08-03T08:31:25.959Z,30.13
2018-08-03T08:33:56.992Z,30.25
2018-08-03T08:34:57.104Z,30.29
2018-08-03T08:36:18.711Z,30.28
2018-08-03T08:38:43.485Z,30.28
2018-08-03T08:39:29.509Z,30.21
2018-08-03T08:40:29.490Z,30.42
2018-08-03T08:43:21.531Z,30.53
2018-08-03T08:44:04.264Z,30.61
2018-08-03T08:45:03.271Z,30.54
2018-08-03T08:49:04.520Z,30.76
2018-08-03T08:50:03.874Z,30.63
2018-08-03T08:51:25.483Z,30.73
2018-08-03T08:52:18.983Z,30.75
2018-08-03T08:53:04.984Z,30.76
2018-08-03T08:54:04.980Z,30.81
2018-08-03T08:55:04.470Z,30.82
2018-08-03T08:57:36.740Z,30.79
2018-08-03T08:58:42.747Z,30.81
2018-08-03T08:59:58.702Z,30.82
2018-08-03T09:00:37.679Z,30.93
2018-08-03T09:01:37.251Z,30.82
2018-08-03T09:02:37.247Z,30.79
2018-08-03T09:03:43.247Z,30.90
2018-08-03T09:04:38.710Z,30.79
2018-08-03T09:05:39.792Z,30.83
2018-08-03T09:08:23.148Z,30.94
2018-08-03T09:09:11.168Z,30.88
2018-08-03T09:10:10.590Z,31.00
2018-08-03T09:11:15.653Z,30.93
2018-08-03T09:12:23.654Z,30.97
2018-08-03T09:13:09.714Z,31.12
2018-08-03T09:14:09.665Z,31.25
2018-08-03T09:17:02.438Z,31.09
2018-08-03T09:17:41.446Z,31.31
2018-08-03T09:18:42.410Z,31.32
2018-08-03T09:19:42.958Z,31.20
2018-08-03T09:22:12.696Z,31.40
2018-08-03T09:23:13.353Z,31.46
2018-08-03T09:24:13.360Z,31.52
2018-08-03T09:25:19.842Z,31.57
2018-08-03T09:26:27.842Z,31.68
2018-08-03T09:27:34.205Z,31.59
2018-08-03T09:28:13.314Z,31.64
2018-08-03T09:29:13.421Z,31.59
2018-08-03T09:30:14.343Z,31.50
2018-08-03T09:31:14.342Z,31.49
2018-08-03T09:32:14.336Z,31.53
2018-08-03T09:33:13.963Z,31.67
2018-08-03T09:34:14.843Z,31.82
2018-08-03T09:35:35.230Z,31.90
2018-08-03T09:36:14.843Z,31.99
2018-08-03T09:37:37.775Z,31.94
2018-08-03T09:38:21.354Z,31.94
2018-08-03T09:39:17.275Z,31.97
2018-08-03T09:41:46.958Z,31.87
2018-08-03T09:42:46.999Z,31.91
2018-08-03T09:43:46.442Z,31.87
2018-08-03T09:45:08.463Z,31.92
2018-08-03T09:45:46.691Z,31.90
2018-08-03T09:47:08.467Z,32.03
2018-08-03T09:47:47.461Z,32.05
2018-08-03T09:49:08.064Z,32.14
2018-08-03T09:50:14.961Z,32.12
2018-08-03T09:51:09.894Z,32.17
2018-08-03T09:52:09.960Z,32.24
2018-08-03T09:52:47.565Z,32.40
2018-08-03T09:55:19.916Z,32.65
2018-08-03T09:56:19.838Z,32.71
2018-08-03T09:57:19.837Z,32.72
2018-08-03T09:58:20.339Z,32.71
2018-08-03T09:59:20.338Z,32.69
2018-08-03T10:00:19.718Z,32.58
2018-08-03T10:01:34.841Z,32.41
2018-08-03T10:02:22.840Z,32.51
2018-08-03T10:03:42.836Z,32.65
2018-08-03T10:04:20.201Z,32.76
2018-08-03T10:05:20.839Z,32.68
2018-08-03T10:06:27.353Z,32.76
2018-08-03T10:07:20.662Z,32.85
2018-08-03T10:08:21.339Z,32.80
2018-08-03T10:09:20.822Z,32.95
2018-08-03T10:10:44.840Z,33.02
2018-08-03T10:11:21.081Z,33.12
2018-08-03T10:12:21.218Z,33.18
2018-08-03T10:13:23.844Z,33.11
2018-08-03T10:15:53.645Z,33.18
2018-08-03T10:16:53.606Z,33.18
2018-08-03T10:17:53.145Z,33.15
2018-08-03T10:18:53.254Z,33.17
2018-08-03T10:19:54.121Z,33.26
2018-08-03T10:20:53.641Z,33.22
2018-08-03T10:21:54.608Z,33.35
2018-08-03T10:23:09.586Z,33.29
2018-08-03T10:23:54.572Z,33.02
2018-08-03T10:24:53.932Z,33.15
2018-08-03T10:25:54.611Z,33.06
2018-08-03T10:26:56.540Z,33.06
2018-08-03T10:27:54.252Z,32.99
2018-08-03T10:28:55.113Z,33.05
2018-08-03T10:29:54.472Z,33.14
2018-08-03T10:30:55.108Z,33.18
2018-08-03T10:31:55.612Z,33.26
2018-08-03T10:32:57.041Z,33.34
2018-08-03T10:33:54.980Z,33.38
2018-08-03T10:34:55.139Z,33.53
2018-08-03T10:35:57.042Z,33.59
2018-08-03T10:36:59.107Z,33.71
2018-08-03T10:37:56.152Z,33.74
2018-08-03T10:38:56.110Z,33.72
2018-08-03T10:39:55.600Z,33.70
2018-08-03T10:40:56.605Z,33.59
2018-08-03T10:41:55.851Z,33.47
2018-08-03T10:43:17.615Z,33.56
2018-08-03T10:43:57.541Z,33.57
2018-08-03T10:44:56.219Z,33.47
2018-08-03T10:45:57.109Z,33.45
2018-08-03T10:46:56.473Z,33.57
2018-08-03T10:47:57.113Z,33.75
2018-08-03T10:48:57.609Z,33.84
2018-08-03T10:49:56.844Z,33.82
2018-08-03T10:50:57.609Z,33.82
2018-08-03T10:51:58.583Z,33.71
2018-08-03T10:53:21.110Z,33.78
2018-08-03T10:54:20.550Z,33.70
2018-08-03T10:54:57.484Z,33.71
2018-08-03T10:56:00.334Z,33.65
2018-08-03T10:56:57.662Z,33.63
2018-08-03T10:58:18.847Z,33.78
2018-08-03T10:59:25.610Z,33.89
2018-08-03T11:01:19.097Z,34.12
2018-08-03T11:02:00.087Z,34.19
2018-08-03T11:06:23.001Z,34.52
2018-08-03T11:07:22.367Z,34.46
2018-08-03T11:08:02.027Z,34.60
2018-08-03T11:09:23.502Z,34.63
2018-08-03T11:10:16.529Z,34.53
2018-08-03T11:14:06.912Z,34.37
2018-08-03T11:15:04.877Z,34.42
2018-08-03T11:16:25.985Z,34.46
2018-08-03T11:17:05.982Z,34.28
2018-08-03T11:18:26.981Z,34.26
2018-08-03T11:19:05.391Z,34.27
2018-08-03T11:20:05.499Z,34.33
2018-08-03T11:22:58.055Z,34.42
2018-08-03T11:23:37.787Z,34.61
2018-08-03T11:24:58.284Z,34.56
2018-08-03T11:25:41.747Z,34.63
2018-08-03T11:26:37.496Z,34.69
2018-08-03T11:32:22.787Z,35.10
2018-08-03T11:33:08.798Z,35.10
2018-08-03T11:34:08.794Z,35.00
2018-08-03T11:35:08.419Z,35.15
2018-08-03T11:36:30.295Z,35.12
2018-08-03T11:37:09.302Z,35.10
2018-08-03T11:38:10.236Z,35.22
2018-08-03T11:39:09.795Z,34.91
2018-08-03T11:40:09.798Z,34.67
2018-08-03T11:41:09.172Z,34.45
2018-08-03T11:42:09.800Z,34.45
2018-08-03T11:43:10.300Z,34.49
2018-08-03T11:44:17.733Z,34.38
2018-08-03T11:45:10.298Z,34.38
2018-08-03T11:46:10.304Z,34.28
2018-08-03T11:47:09.916Z,34.65
2018-08-03T11:48:14.778Z,34.88
2018-08-03T11:49:10.795Z,35.43
2018-08-03T11:50:10.796Z,35.64
2018-08-03T11:51:31.416Z,35.69
2018-08-03T11:52:12.728Z,35.99
2018-08-03T11:53:10.654Z,35.99
2018-08-03T11:54:25.295Z,36.28
2018-08-03T11:55:10.915Z,36.60
2018-08-03T11:56:11.795Z,36.94
2018-08-03T11:57:32.796Z,37.23
2018-08-03T11:58:11.290Z,37.34
2018-08-03T11:59:32.374Z,37.59
2018-08-03T12:01:49.667Z,38.06
2018-08-03T12:02:43.054Z,38.19
2018-08-03T12:03:43.658Z,38.31
2018-08-03T12:04:50.157Z,38.60
2018-08-03T12:05:44.165Z,38.44
2018-08-03T12:06:44.158Z,38.47
2018-08-03T12:07:44.158Z,38.59
2018-08-03T12:08:46.657Z,38.44
2018-08-03T12:09:43.894Z,38.30
2018-08-03T12:11:05.666Z,38.70
2018-08-03T12:11:44.658Z,38.87
2018-08-03T12:13:08.158Z,38.82
2018-08-03T12:15:16.599Z,38.87
2018-08-03T12:16:38.596Z,38.90
2018-08-03T12:17:16.612Z,39.14
2018-08-03T12:18:16.227Z,39.12
2018-08-03T12:19:19.098Z,39.19
2018-08-03T12:20:40.098Z,39.54
2018-08-03T12:21:17.098Z,39.85
2018-08-03T12:22:17.632Z,40.18
2018-08-03T12:23:19.600Z,40.45
2018-08-03T12:24:17.598Z,40.63
2018-08-03T12:25:17.598Z,40.75
2018-08-03T12:26:39.098Z,40.68
2018-08-03T12:27:18.109Z,40.88
2018-08-03T12:28:18.099Z,40.26
2018-08-03T12:30:50.792Z,40.28
2018-08-03T12:31:50.813Z,40.48
2018-08-03T12:32:50.304Z,40.68
2018-08-03T12:33:52.733Z,40.79
2018-08-03T12:34:51.301Z,40.44
2018-08-03T12:35:51.234Z,40.71
2018-08-03T12:36:51.301Z,40.48
2018-08-03T12:37:51.805Z,40.49
2018-08-03T12:38:51.800Z,40.78
2018-08-03T12:39:51.801Z,40.85
2018-08-03T12:40:54.236Z,41.02
2018-08-03T12:43:37.568Z,41.36
2018-08-03T12:44:45.565Z,41.57
2018-08-03T12:45:44.999Z,41.50
2018-08-03T12:46:38.067Z,41.17
2018-08-03T12:47:30.067Z,40.60
2018-08-03T12:48:24.067Z,40.75
2018-08-03T12:49:23.560Z,40.45
2018-08-03T12:50:38.578Z,39.70
2018-08-03T12:51:44.894Z,38.90
2018-08-03T12:52:30.587Z,38.18
2018-08-03T12:53:24.758Z,37.77
2018-08-03T12:54:25.071Z,37.11
2018-08-03T12:56:58.423Z,36.91
2018-08-03T12:59:42.615Z,38.78
2018-08-03T13:00:35.985Z,39.29
2018-08-03T13:01:27.848Z,39.76
2018-08-03T13:02:28.025Z,40.09
2018-08-03T13:03:31.030Z,40.44
2018-08-03T13:04:29.029Z,40.71
2018-08-03T13:05:50.028Z,41.20
2018-08-03T13:06:31.033Z,41.53
2018-08-03T13:07:35.611Z,41.89
2018-08-03T13:08:28.960Z,42.20
2018-08-03T13:09:30.960Z,42.36
2018-08-03T13:10:30.462Z,42.33
2018-08-03T13:11:30.030Z,42.27
2018-08-03T13:12:30.030Z,42.08
2018-08-03T13:13:51.029Z,42.02
2018-08-03T13:14:51.047Z,42.20
2018-08-03T13:15:51.526Z,42.46
2018-08-03T13:16:32.530Z,42.91
2018-08-03T13:17:30.529Z,42.82
2018-08-03T13:18:33.027Z,42.89
2018-08-03T13:19:33.032Z,43.08
2018-08-03T13:20:37.027Z,43.31
2018-08-03T13:23:02.570Z,43.79
2018-08-03T13:24:01.962Z,43.55
2018-08-03T13:25:02.589Z,43.37
2018-08-03T13:26:04.510Z,43.01
2018-08-03T13:27:03.080Z,43.06
2018-08-03T13:28:05.077Z,42.65
2018-08-03T13:29:03.088Z,42.70
2018-08-03T13:30:03.574Z,42.87
2018-08-03T13:31:05.576Z,42.89
2018-08-03T13:32:03.576Z,42.92
2018-08-03T13:33:03.576Z,43.17
2018-08-03T13:35:55.677Z,43.48
2018-08-03T13:36:56.387Z,43.36
2018-08-03T13:37:34.878Z,43.41
2018-08-03T13:38:35.881Z,43.56
2018-08-03T13:39:58.311Z,43.65
2018-08-03T13:40:35.875Z,44.05
2018-08-03T13:41:35.398Z,43.43
2018-08-03T13:42:42.379Z,42.55
2018-08-03T13:43:42.379Z,42.46
2018-08-03T13:44:36.447Z,43.10
2018-08-03T13:45:36.382Z,43.29
2018-08-03T13:46:36.877Z,43.36
2018-08-03T13:48:03.883Z,43.40
2018-08-03T13:48:36.878Z,43.29
2018-08-03T13:49:36.374Z,42.73
2018-08-03T13:50:39.387Z,43.08
2018-08-03T13:51:36.634Z,42.64
2018-08-03T13:52:37.377Z,42.48
2018-08-03T13:53:37.952Z,42.42
2018-08-03T13:54:37.898Z,42.36
2018-08-03T13:55:37.875Z,42.60
2018-08-03T13:56:39.350Z,42.49
2018-08-03T13:57:59.887Z,42.98
2018-08-03T13:58:37.512Z,43.45
2018-08-03T13:59:38.375Z,43.36
2018-08-03T14:00:52.373Z,43.60
2018-08-03T14:01:37.874Z,43.87
2018-08-03T14:03:05.877Z,44.03
2018-08-03T14:03:40.308Z,43.97
2018-08-03T14:04:38.874Z,44.15
2018-08-03T14:05:40.874Z,43.84
2018-08-03T14:08:10.681Z,43.67
2018-08-03T14:09:10.684Z,43.79
2018-08-03T14:10:31.681Z,43.31
2018-08-03T14:11:10.289Z,42.73
2018-08-03T14:12:11.229Z,42.68
2018-08-03T14:13:11.185Z,42.49
2018-08-03T14:14:10.689Z,42.62
2018-08-03T14:15:11.679Z,42.94
2018-08-03T14:16:32.679Z,42.77
2018-08-03T14:17:11.680Z,41.96
2018-08-03T14:18:11.679Z,42.27
2018-08-03T14:19:12.177Z,42.61
2018-08-03T14:20:13.116Z,42.95
2018-08-03T14:21:12.177Z,43.03
2018-08-03T14:22:12.252Z,43.16
2018-08-03T14:23:11.813Z,43.48
2018-08-03T14:24:12.677Z,43.68
2018-08-03T14:25:12.049Z,43.90
2018-08-03T14:26:12.674Z,44.23
2018-08-03T14:28:43.793Z,44.35
2018-08-03T14:29:44.515Z,44.50
2018-08-03T14:30:44.507Z,44.85
2018-08-03T14:32:06.008Z,44.84
2018-08-03T14:33:05.255Z,44.86
2018-08-03T14:33:45.008Z,45.05
2018-08-03T14:34:45.009Z,45.23
2018-08-03T14:36:06.446Z,45.19
2018-08-03T14:36:45.507Z,45.16
2018-08-03T14:37:48.006Z,45.19
2018-08-03T14:39:06.127Z,45.16
2018-08-03T14:40:01.483Z,44.96
2018-08-03T14:40:46.008Z,44.78
2018-08-03T14:41:45.506Z,44.62
2018-08-03T14:42:45.633Z,44.67
2018-08-03T14:43:46.504Z,44.74
2018-08-03T14:45:06.869Z,44.64
2018-08-03T14:45:46.504Z,44.64
2018-08-03T14:48:18.306Z,44.23
2018-08-03T14:49:18.320Z,44.06
2018-08-03T14:50:39.314Z,43.63
2018-08-03T14:51:18.812Z,43.13
2018-08-03T14:52:18.811Z,43.22
2018-08-03T14:53:18.815Z,43.20